createdAt,value
2019-01-24T00:03:11.549Z,114.80
2019-01-24T00:08:06.057Z,82.83
2019-01-24T00:13:00.285Z,77.77
2019-01-24T00:17:54.250Z,170.80
2019-01-24T00:22:49.310Z,116.53
2019-01-24T00:27:43.123Z,89.13
2019-01-24T00:32:37.455Z,110.07
2019-01-24T00:37:31.175Z,84.30
2019-01-24T00:42:25.812Z,82.10
2019-01-24T00:47:19.484Z,86.57
2019-01-24T00:52:13.626Z,90.70
2019-01-24T00:57:07.372Z,80.83
2019-01-24T01:02:01.226Z,86.43
2019-01-24T01:06:55.143Z,87.23
2019-01-24T01:11:48.918Z,74.23
2019-01-24T01:16:44.743Z,85.43
2019-01-24T01:21:39.114Z,86.23
2019-01-24T01:26:32.777Z,80.00
2019-01-24T01:31:26.564Z,84.37
2019-01-24T01:36:20.252Z,85.77
2019-01-24T01:41:13.926Z,79.00
2019-01-24T01:46:07.735Z,87.23
2019-01-24T01:51:04.364Z,74.03
2019-01-24T01:55:58.975Z,85.97
2019-01-24T02:00:53.358Z,81.73
2019-01-24T02:05:47.379Z,86.67
2019-01-24T02:10:41.151Z,91.67
2019-01-24T02:15:34.954Z,90.63
2019-01-24T02:20:28.732Z,98.20
2019-01-24T02:25:24.545Z,94.90
2019-01-24T02:30:27.725Z,94.13
2019-01-24T02:35:21.924Z,86.23
2019-01-24T02:40:16.119Z,94.37
2019-01-24T02:45:15.869Z,89.27
2019-01-24T02:50:13.675Z,90.93
2019-01-24T02:55:10.784Z,95.73
2019-01-24T03:00:19.439Z,93.00
2019-01-24T03:05:19.916Z,92.67
2019-01-24T03:10:14.930Z,83.83
2019-01-24T03:15:12.034Z,95.50
2019-01-24T03:20:08.507Z,100.10
2019-01-24T03:25:05.204Z,103.43
2019-01-24T03:30:00.015Z,106.13
2019-01-24T03:34:53.687Z,99.30
2019-01-24T03:39:47.554Z,94.07
2019-01-24T03:44:41.250Z,95.37
2019-01-24T03:49:34.982Z,107.93
2019-01-24T03:54:28.668Z,106.33
2019-01-24T03:59:22.591Z,112.83
2019-01-24T04:04:17.390Z,113.67
2019-01-24T04:09:11.326Z,106.20
2019-01-24T04:14:05.724Z,107.53
2019-01-24T04:18:59.467Z,122.47
2019-01-24T04:23:53.370Z,106.67
2019-01-24T04:28:47.993Z,149.20
2019-01-24T04:33:42.355Z,110.43
2019-01-24T04:38:35.975Z,109.80
2019-01-24T04:43:29.670Z,105.50
2019-01-24T04:48:24.020Z,109.67
2019-01-24T04:53:18.867Z,106.00
2019-01-24T04:58:14.305Z,112.40
2019-01-24T05:03:08.975Z,113.67
2019-01-24T05:08:02.723Z,113.70
2019-01-24T05:12:57.578Z,101.87
2019-01-24T05:17:51.461Z,97.77
2019-01-24T05:22:45.245Z,111.03
2019-01-24T05:27:40.756Z,115.47
2019-01-24T05:32:37.577Z,109.10
2019-01-24T05:37:33.513Z,150.43
2019-01-24T05:42:29.254Z,134.97
2019-01-24T05:47:23.215Z,116.30
2019-01-24T05:52:19.623Z,120.77
2019-01-24T05:57:12.601Z,113.17
2019-01-24T06:02:06.608Z,150.97
2019-01-24T06:07:00.929Z,147.10
2019-01-24T06:11:54.840Z,236.40
2019-01-24T06:16:50.832Z,179.20
2019-01-24T06:21:45.040Z,120.77
2019-01-24T06:26:39.510Z,109.40
2019-01-24T06:31:33.831Z,224.83
2019-01-24T06:36:27.518Z,152.67
2019-01-24T06:41:23.550Z,226.97
2019-01-24T06:46:17.306Z,205.10
2019-01-24T06:51:11.438Z,155.73
2019-01-24T06:56:06.631Z,129.00
2019-01-24T07:01:01.695Z,138.13
2019-01-24T07:05:55.603Z,118.30
2019-01-24T07:10:51.511Z,106.90
2019-01-24T07:15:46.056Z,119.13
2019-01-24T07:20:42.371Z,124.83
2019-01-24T07:25:36.769Z,130.23
2019-01-24T07:30:31.170Z,152.43
2019-01-24T07:35:29.109Z,589.03
2019-01-24T07:40:24.158Z,609.03
2019-01-24T07:45:23.622Z,470.77
2019-01-24T07:50:17.980Z,450.07
2019-01-24T07:55:14.153Z,470.10
2019-01-24T08:00:15.970Z,268.53
2019-01-24T08:05:13.639Z,111.83
2019-01-24T08:10:10.835Z,104.10
2019-01-24T08:15:12.004Z,204.57
2019-01-24T08:20:12.727Z,144.27
2019-01-24T08:25:09.937Z,118.20
2019-01-24T08:30:11.033Z,125.80
2019-01-24T08:35:07.372Z,130.63
2019-01-24T08:40:01.918Z,113.97
2019-01-24T08:44:56.651Z,121.53
2019-01-24T08:49:51.691Z,133.13
2019-01-24T08:54:46.482Z,102.03
2019-01-24T08:59:44.047Z,80.57
2019-01-24T09:04:39.018Z,52.37
2019-01-24T09:09:33.642Z,50.93
2019-01-24T09:14:33.079Z,39.80
2019-01-24T09:19:29.052Z,34.30
2019-01-24T09:24:24.317Z,34.00
2019-01-24T09:29:20.724Z,42.33
2019-01-24T09:34:15.336Z,53.33
2019-01-24T09:39:11.902Z,33.50
2019-01-24T09:44:07.753Z,36.83
2019-01-24T09:49:06.232Z,33.57
2019-01-24T09:54:04.591Z,35.03
2019-01-24T09:59:00.135Z,35.67
2019-01-24T10:03:56.733Z,42.13
2019-01-24T10:08:51.868Z,40.13
2019-01-24T10:13:46.777Z,41.40
2019-01-24T10:18:41.967Z,37.73
2019-01-24T10:23:37.095Z,35.27
2019-01-24T10:28:31.815Z,39.63
2019-01-24T10:33:27.350Z,40.10
2019-01-24T10:38:21.821Z,35.00
2019-01-24T10:43:31.382Z,38.07
2019-01-24T10:48:16.751Z,37.70
2019-01-24T10:53:11.336Z,38.17
2019-01-24T10:58:09.357Z,36.97
2019-01-24T11:03:06.077Z,33.40
2019-01-24T11:08:00.627Z,33.33
2019-01-24T11:12:55.658Z,32.87
2019-01-24T11:17:50.555Z,31.70
2019-01-24T11:22:45.432Z,34.77
2019-01-24T11:27:40.178Z,33.60
2019-01-24T11:32:35.029Z,40.33
2019-01-24T11:37:29.958Z,38.53
2019-01-24T11:42:26.106Z,50.70
2019-01-24T11:47:20.802Z,43.87
2019-01-24T11:52:19.130Z,40.27
2019-01-24T11:57:15.055Z,37.77
2019-01-24T12:02:11.303Z,40.03
2019-01-24T12:07:06.407Z,37.30
2019-01-24T12:12:00.332Z,39.93
2019-01-24T12:16:56.239Z,39.70
2019-01-24T12:21:51.422Z,38.17
2019-01-24T12:26:48.866Z,35.23
2019-01-24T12:31:43.812Z,34.73
2019-01-24T12:36:40.069Z,35.77
2019-01-24T12:41:35.922Z,34.63
2019-01-24T12:46:30.736Z,44.73
2019-01-24T12:51:28.043Z,36.83
2019-01-24T12:56:24.243Z,41.10
2019-01-24T13:01:18.656Z,38.80
2019-01-24T13:06:13.567Z,42.77
2019-01-24T13:11:08.789Z,36.13
2019-01-24T13:16:05.575Z,43.67
2019-01-24T13:21:00.374Z,42.53
2019-01-24T13:25:54.755Z,57.23
2019-01-24T13:30:49.156Z,39.13
2019-01-24T13:35:44.776Z,37.63
2019-01-24T13:40:39.618Z,44.83
2019-01-24T13:45:36.074Z,42.60
2019-01-24T13:50:29.996Z,41.90
2019-01-24T13:55:25.771Z,51.87
2019-01-24T14:00:33.630Z,46.07
2019-01-24T14:05:27.780Z,44.07
2019-01-24T14:10:23.816Z,39.27
2019-01-24T14:15:19.964Z,41.77
2019-01-24T14:20:17.539Z,50.63
2019-01-24T14:25:17.188Z,49.67
2019-01-24T14:30:14.951Z,46.30
2019-01-24T14:35:10.878Z,48.93
2019-01-24T14:40:13.891Z,47.20
2019-01-24T14:45:15.253Z,52.07
2019-01-24T14:50:14.098Z,52.00
2019-01-24T14:55:11.530Z,48.77
2019-01-24T15:00:17.488Z,41.83
2019-01-24T15:05:12.261Z,42.57
2019-01-24T15:10:11.327Z,39.07
2019-01-24T15:15:19.165Z,43.77
2019-01-24T15:20:14.714Z,39.03
2019-01-24T15:25:14.465Z,46.33
2019-01-24T15:30:21.012Z,44.77
2019-01-24T15:35:15.423Z,43.07
2019-01-24T15:40:15.109Z,45.33
2019-01-24T15:45:12.402Z,45.33
2019-01-24T15:50:09.983Z,44.80
2019-01-24T15:55:07.835Z,47.20
2019-01-24T16:00:02.755Z,46.17
2019-01-24T16:04:57.211Z,45.83
2019-01-24T16:09:51.272Z,44.43
2019-01-24T16:14:50.641Z,51.53
2019-01-24T16:19:48.509Z,40.73
2019-01-24T16:24:42.706Z,69.03
2019-01-24T16:29:38.564Z,59.23
2019-01-24T16:39:49.989Z,44.00
2019-01-24T16:44:52.197Z,55.13
2019-01-24T16:49:50.248Z,47.43
2019-01-24T16:54:45.100Z,55.33
2019-01-24T16:59:41.674Z,47.17
2019-01-24T17:04:37.694Z,47.57
2019-01-24T17:09:32.179Z,48.30
2019-01-24T17:14:28.601Z,50.67
2019-01-24T17:19:22.443Z,42.07
2019-01-24T17:24:16.955Z,53.30
2019-01-24T17:29:12.778Z,191.23
2019-01-24T17:34:07.800Z,51.40
2019-01-24T17:39:09.796Z,44.33
2019-01-24T17:44:06.187Z,42.87
2019-01-24T17:49:21.107Z,52.23
2019-01-24T17:54:15.476Z,44.07
2019-01-24T17:59:11.450Z,47.87
2019-01-24T18:04:07.029Z,51.63
2019-01-24T18:09:04.747Z,45.30
2019-01-24T18:13:59.850Z,47.87
2019-01-24T18:18:54.070Z,44.77
2019-01-24T18:23:49.049Z,47.53
2019-01-24T18:28:45.365Z,47.93
2019-01-24T18:33:40.503Z,48.60
2019-01-24T18:38:38.535Z,46.57
2019-01-24T18:43:32.013Z,49.33
2019-01-24T18:48:26.408Z,52.43
2019-01-24T18:53:21.370Z,49.10
2019-01-24T18:58:17.317Z,49.87
2019-01-24T19:03:11.383Z,48.27
2019-01-24T19:08:06.577Z,52.63
2019-01-24T19:13:02.523Z,57.03
2019-01-24T19:17:58.677Z,49.97
2019-01-24T19:22:54.610Z,49.43
2019-01-24T19:27:49.198Z,49.57
2019-01-24T19:32:44.832Z,48.87
2019-01-24T19:37:38.679Z,45.83
2019-01-24T19:42:35.687Z,51.17
2019-01-24T19:47:38.063Z,47.13
2019-01-24T19:52:32.785Z,47.47
2019-01-24T19:57:27.096Z,46.33
2019-01-24T20:02:21.513Z,52.17
2019-01-24T20:07:16.466Z,51.33
2019-01-24T20:12:12.376Z,48.53
2019-01-24T20:17:11.402Z,56.07
2019-01-24T20:22:07.102Z,54.53
2019-01-24T20:27:01.616Z,52.00
2019-01-24T20:31:59.781Z,50.60
2019-01-24T20:36:54.074Z,49.80
2019-01-24T20:41:48.159Z,49.23
2019-01-24T20:46:44.718Z,56.17
2019-01-24T20:51:40.452Z,52.23
2019-01-24T20:56:34.227Z,49.63
2019-01-24T21:01:28.821Z,59.57
2019-01-24T21:06:22.922Z,50.47
2019-01-24T21:11:17.617Z,48.77
2019-01-24T21:16:15.460Z,51.00
2019-01-24T21:21:12.378Z,52.07
2019-01-24T21:26:08.661Z,50.67
2019-01-24T21:31:09.923Z,45.90
2019-01-24T21:36:09.667Z,48.30
2019-01-24T21:41:07.376Z,51.07
2019-01-24T21:46:01.855Z,49.33
2019-01-24T21:50:57.843Z,48.07
2019-01-24T21:55:53.179Z,49.83
2019-01-24T22:00:48.210Z,51.87
2019-01-24T22:05:42.419Z,50.00
2019-01-24T22:10:36.887Z,49.30
2019-01-24T22:15:34.665Z,51.50
2019-01-24T22:20:31.286Z,52.43
2019-01-24T22:25:34.646Z,51.60
2019-01-24T22:30:40.435Z,52.03
2019-01-24T22:35:38.467Z,55.13
2019-01-24T22:40:32.376Z,53.77
2019-01-24T22:45:28.757Z,51.20
2019-01-24T22:50:26.305Z,49.33
2019-01-24T22:55:24.010Z,51.30
2019-01-24T23:00:48.180Z,53.97
2019-01-24T23:05:42.486Z,52.60
2019-01-24T23:10:38.416Z,55.40
2019-01-24T23:15:34.978Z,57.23
2019-01-24T23:20:29.268Z,58.73
2019-01-24T23:25:23.473Z,54.13
2019-01-24T23:30:18.500Z,56.77
2019-01-24T23:35:15.778Z,55.70
2019-01-24T23:40:12.306Z,55.30
2019-01-24T23:45:10.180Z,56.33
2019-01-24T23:50:07.248Z,56.47
2019-01-24T23:55:05.539Z,53.73
2019-01-24T23:59:59.943Z,54.23
